EWG1 EDDW-EDDW

Flight info

Callsign EWG1
Flight time 0h 29m
Altitude
Route
Aircraft A320

Departure

Time 2026-05-04 18:39
Airport Bremen Airport (EDDW)

Arrival

Time 2026-05-04 19:08
Airport Bremen Airport (EDDW)
Time Latitude Longitude Altitude Speed Heading
2026-05-04 18:34 53.05002 8.78487 22 ft 0 kts 229°
2026-05-04 18:34 53.04998 8.78478 24 ft 5 kts 230°
2026-05-04 18:34 53.04995 8.78411 22 ft 12 kts 311°
2026-05-04 18:35 53.05066 8.78313 22 ft 22 kts 321°
2026-05-04 18:35 53.05181 8.78144 22 ft 17 kts 315°
2026-05-04 18:35 53.05155 8.77968 22 ft 24 kts 241°
2026-05-04 18:35 53.05025 8.77729 22 ft 29 kts 229°
2026-05-04 18:36 53.04896 8.77521 23 ft 27 kts 211°
2026-05-04 18:36 53.04772 8.77453 23 ft 15 kts 186°
2026-05-04 18:36 53.04758 8.77451 23 ft 0 kts 181°
2026-05-04 18:37 53.04744 8.77451 23 ft 6 kts 180°
2026-05-04 18:38 53.04662 8.77468 22 ft 10 kts 147°
2026-05-04 18:38 53.04659 8.77509 21 ft 0 kts 88°
2026-05-04 18:38 53.04659 8.77518 21 ft 12 kts 89°
2026-05-04 18:39 53.04674 8.78219 22 ft 104 kts 89°
2026-05-04 18:39 53.04715 8.79797 116 ft 158 kts 87°
2026-05-04 18:39 53.04630 8.81631 823 ft 168 kts 109°
2026-05-04 18:39 53.03835 8.83194 966 ft 179 kts 149°
2026-05-04 18:40 53.02648 8.83598 1003 ft 174 kts 180°
2026-05-04 18:40 53.01558 8.82901 994 ft 171 kts 226°
2026-05-04 18:40 53.01075 8.81207 975 ft 165 kts 265°
2026-05-04 18:40 53.00974 8.79308 1019 ft 166 kts 269°
2026-05-04 18:41 53.00902 8.77390 1012 ft 167 kts 260°
2026-05-04 18:41 53.00122 8.76063 1041 ft 172 kts 188°
2026-05-04 18:41 52.99074 8.76720 1048 ft 167 kts 122°
2026-05-04 18:41 52.99029 8.78481 1071 ft 159 kts 54°
2026-05-04 18:42 52.99979 8.79173 1060 ft 158 kts 349°
2026-05-04 18:42 53.00701 8.78296 1130 ft 158 kts 301°
2026-05-04 18:42 53.00785 8.76499 1079 ft 160 kts 265°
2026-05-04 18:42 53.00682 8.74704 861 ft 152 kts 277°
2026-05-04 18:43 53.01059 8.73151 687 ft 143 kts 313°
2026-05-04 18:43 53.01901 8.72444 618 ft 137 kts 352°
2026-05-04 18:43 53.02850 8.72461 618 ft 137 kts 13°
2026-05-04 18:43 53.03728 8.73063 540 ft 137 kts 33°
2026-05-04 18:44 53.04347 8.74269 428 ft 139 kts 56°
2026-05-04 18:44 53.04491 8.74760 388 ft 140 kts 69°
2026-05-04 18:44 53.04657 8.77442 65 ft 142 kts 84°
2026-05-04 18:44 53.04702 8.79016 29 ft 144 kts 90°
2026-05-04 18:45 53.04729 8.80889 414 ft 166 kts 87°
2026-05-04 18:45 53.04471 8.82690 614 ft 166 kts 133°
2026-05-04 18:45 53.03397 8.83276 706 ft 173 kts 185°
2026-05-04 18:45 53.02296 8.82656 764 ft 166 kts 224°
2026-05-04 18:46 53.01658 8.81038 922 ft 168 kts 247°
2026-05-04 18:46 53.01230 8.79340 831 ft 155 kts 259°
2026-05-04 18:46 53.01145 8.77629 720 ft 145 kts 276°
2026-05-04 18:46 53.01175 8.75960 674 ft 144 kts 274°
2026-05-04 18:47 53.01132 8.74310 665 ft 143 kts 270°
2026-05-04 18:47 53.01098 8.72673 886 ft 141 kts 283°
2026-05-04 18:47 53.01574 8.71316 855 ft 137 kts 326°
2026-05-04 18:47 53.02455 8.70893 742 ft 134 kts
2026-05-04 18:48 53.03344 8.71305 590 ft 135 kts 31°
2026-05-04 18:48 53.03977 8.72462 510 ft 139 kts 59°
2026-05-04 18:48 53.04416 8.73891 373 ft 139 kts 65°
2026-05-04 18:48 53.04603 8.75471 267 ft 141 kts 85°
2026-05-04 18:49 53.04649 8.77099 100 ft 141 kts 85°
2026-05-04 18:49 53.04688 8.78684 27 ft 127 kts 85°
2026-05-04 18:49 53.04728 8.80238 213 ft 151 kts 88°
2026-05-04 18:49 53.04635 8.81926 734 ft 149 kts 110°
2026-05-04 18:50 53.03879 8.83038 801 ft 151 kts 165°
2026-05-04 18:50 53.02838 8.82986 911 ft 150 kts 190°
2026-05-04 18:50 53.01845 8.82484 1050 ft 152 kts 216°
2026-05-04 18:50 53.01281 8.81100 1012 ft 145 kts 262°
2026-05-04 18:51 53.01202 8.79437 982 ft 145 kts 275°
2026-05-04 18:51 53.01247 8.77774 920 ft 144 kts 274°
2026-05-04 18:51 53.00785 8.76362 913 ft 151 kts 203°
2026-05-04 18:51 52.99845 8.76723 928 ft 144 kts 126°
2026-05-04 18:52 52.99763 8.78233 953 ft 137 kts 52°
2026-05-04 18:52 53.00586 8.78727 966 ft 137 kts 341°
2026-05-04 18:52 53.01130 8.77492 954 ft 145 kts 282°
2026-05-04 18:52 53.01127 8.76371 795 ft 147 kts 270°
2026-05-04 18:53 53.01097 8.74707 573 ft 140 kts 285°
2026-05-04 18:53 53.01581 8.73366 644 ft 136 kts 326°
2026-05-04 18:53 53.02457 8.72869 677 ft 135 kts
2026-05-04 18:53 53.03617 8.73578 539 ft 137 kts 32°
2026-05-04 18:54 53.04304 8.74644 379 ft 136 kts 53°
2026-05-04 18:54 53.04609 8.76124 182 ft 138 kts 83°
2026-05-04 18:54 53.04651 8.77203 90 ft 139 kts 85°
2026-05-04 18:54 53.04690 8.78756 24 ft 125 kts 86°
2026-05-04 18:55 53.04744 8.80389 467 ft 143 kts 85°
2026-05-04 18:55 53.03695 8.82927 814 ft 150 kts 174°
2026-05-04 18:55 53.02738 8.82375 903 ft 149 kts 227°
2026-05-04 18:56 53.02081 8.81027 996 ft 151 kts 236°
2026-05-04 18:56 53.01476 8.79612 1055 ft 150 kts 242°
2026-05-04 18:56 53.00972 8.78098 1032 ft 150 kts 251°
2026-05-04 18:56 53.00960 8.76440 907 ft 142 kts 286°
2026-05-04 18:57 53.01335 8.74964 896 ft 139 kts 310°
2026-05-04 18:57 53.02027 8.73904 851 ft 137 kts 333°
2026-05-04 18:57 53.02903 8.73257 585 ft 139 kts 351°
2026-05-04 18:57 53.03763 8.73726 455 ft 135 kts 44°
2026-05-04 18:58 53.04389 8.74887 306 ft 135 kts 57°
2026-05-04 18:58 53.04621 8.76395 143 ft 137 kts 84°
2026-05-04 18:58 53.04667 8.77990 23 ft 136 kts 86°
2026-05-04 18:58 53.04710 8.79640 231 ft 162 kts 86°
2026-05-04 18:59 53.04760 8.81568 1000 ft 170 kts 89°
2026-05-04 18:59 53.04190 8.83331 1152 ft 182 kts 147°
2026-05-04 18:59 53.03054 8.83504 1069 ft 162 kts 207°
2026-05-04 18:59 53.02247 8.82284 1024 ft 157 kts 237°
2026-05-04 19:00 53.01727 8.80690 1054 ft 156 kts 254°
2026-05-04 19:00 53.01402 8.78991 928 ft 150 kts 259°
2026-05-04 19:00 53.01150 8.77321 862 ft 152 kts 264°
2026-05-04 19:00 53.01121 8.75510 861 ft 160 kts 281°
2026-05-04 19:01 53.01337 8.73678 838 ft 162 kts 293°
2026-05-04 19:01 53.02066 8.72431 944 ft 145 kts 341°
2026-05-04 19:01 53.03027 8.72249 903 ft 138 kts
2026-05-04 19:01 53.03887 8.72974 804 ft 143 kts 45°
2026-05-04 19:02 53.04452 8.74362 467 ft 147 kts 70°
2026-05-04 19:02 53.04619 8.76001 220 ft 142 kts 84°
2026-05-04 19:02 53.04659 8.77627 45 ft 140 kts 85°
2026-05-04 19:02 53.04702 8.79192 45 ft 152 kts 88°
2026-05-04 19:03 53.04736 8.81051 712 ft 152 kts 86°
2026-05-04 19:03 53.04277 8.82553 1010 ft 154 kts 149°
2026-05-04 19:03 53.03250 8.82587 914 ft 151 kts 207°
2026-05-04 19:03 53.02550 8.81379 932 ft 147 kts 250°
2026-05-04 19:04 53.02195 8.79781 1033 ft 147 kts 256°
2026-05-04 19:04 53.01972 8.78138 1092 ft 145 kts 264°
2026-05-04 19:04 53.01278 8.77025 985 ft 148 kts 186°
2026-05-04 19:04 53.00412 8.77702 996 ft 143 kts 116°
2026-05-04 19:05 53.00504 8.79198 936 ft 136 kts 43°
2026-05-04 19:05 53.01361 8.79341 783 ft 137 kts 324°
2026-05-04 19:05 53.01611 8.77897 760 ft 145 kts 250°
2026-05-04 19:05 53.00813 8.76983 796 ft 148 kts 175°
2026-05-04 19:06 53.00042 8.77925 1032 ft 150 kts 108°
2026-05-04 19:06 53.00251 8.79474 964 ft 143 kts 39°
2026-05-04 19:06 53.01167 8.79620 904 ft 145 kts 330°
2026-05-04 19:06 53.01637 8.78173 959 ft 152 kts 282°
2026-05-04 19:07 53.01803 8.76419 624 ft 152 kts 288°
2026-05-04 19:07 53.02132 8.74842 585 ft 140 kts 306°
2026-05-04 19:07 53.02858 8.73982 395 ft 130 kts 356°
2026-05-04 19:07 53.03688 8.74338 290 ft 124 kts 36°
2026-05-04 19:08 53.04348 8.75268 322 ft 128 kts 58°
2026-05-04 19:08 53.04621 8.76662 153 ft 128 kts 82°
2026-05-04 19:08 53.04672 8.78143 28 ft 121 kts 86°
2026-05-04 19:08 53.04692 8.78953 23 ft 28 kts 89°
2026-05-04 19:09 53.04729 8.79271 22 ft 26 kts 46°
2026-05-04 19:09 53.04863 8.79241 23 ft 18 kts 292°
2026-05-04 19:09 53.04858 8.79067 21 ft 17 kts 274°
2026-05-04 19:09 53.04894 8.78864 22 ft 21 kts 316°
2026-05-04 19:10 53.05003 8.78680 23 ft 23 kts 293°
2026-05-04 19:10 53.05037 8.78569 22 ft 3 kts 300°
2026-05-04 19:10 53.05027 8.78540 22 ft 5 kts 231°
2026-05-04 19:10 53.04997 8.78477 22 ft 0 kts 227°